Magne Viking — OURK2 — position and weather

sailwx.info

Track history (hours):
 
Tides and Currents Weather Stations Pressure Air Temp Water Temp Dewpoint Dewpoint Depression Visibility Wind Speed Wind Dir Waves Ship Positions

Magne Viking

Last reported at 2017-Mar-02 17:08 UTC. Time now 2017-Mar-24 08:13 UTC.
Position N 56°33' E 017°11'.
Warning: this ship's position is 21 days out of date.

Length 85 m; draft 7.3 m.

Type: Tug. MMSI: 219375000.

Date/timePositionNaut miles runAvg speedWind from/ knotsBaromVisibWave heightAir tempDewpointWater temp
2017-Mar-02 17:08N 56°33' E 017°11'610.0
2017-Mar-02 16:32N 56°28' E 017°07'1010.1
2017-Mar-02 15:33N 56°18' E 017°03'10 9.7
2017-Mar-02 14:34N 56°10' E 016°53'10 9.9
2017-Mar-02 13:34N 56°02' E 016°42'1010.0
2017-Mar-02 12:34N 55°57' E 016°27'1010.0
2017-Mar-02 11:33N 55°52' E 016°11'10 9.9
2017-Mar-02 10:34N 55°47' E 015°56'1010.0
2017-Mar-02 09:34N 55°43' E 015°40'10 9.9
2017-Mar-02 08:34N 55°38' E 015°25'10 9.9
2017-Mar-02 07:33N 55°33' E 015°09'10 9.9
2017-Mar-02 06:34N 55°28' E 014°54'1010.0
2017-Mar-02 05:33N 55°23' E 014°39'1010.4
2017-Mar-02 04:33N 55°15' E 014°27'10 9.8
2017-Mar-02 03:34N 55°10' E 014°13'1110.1
2017-Mar-02 02:31N 55°11' E 013°54'1010.5
2017-Mar-02 01:32N 55°12' E 013°36'1110.7
2017-Mar-02 00:30N 55°13' E 013°17'1010.5
2017-Mar-01 23:33N 55°14' E 012°60'1110.6
2017-Mar-01 22:34N 55°17' E 012°42'10 9.6
2017-Mar-01 21:34N 55°27' E 012°41'9 8.9
2017-Mar-01 20:34N 55°36' E 012°42'10 9.6
2017-Mar-01 19:34N 55°45' E 012°41'8 8.2
2017-Mar-01 18:34N 55°53' E 012°47'2 1.9
2017-Mar-01 17:34N 55°51' E 012°50'0 0.0
2017-Mar-01 16:33N 55°51' E 012°50'0 0.0
2017-Mar-01 15:31N 55°51' E 012°50'0 0.0
2017-Mar-01 14:31N 55°51' E 012°50'0 0.0
2017-Mar-01 13:32N 55°51' E 012°50'0 0.0
2017-Mar-01 12:33N 55°51' E 012°50'0 0.0
2017-Mar-01 11:33N 55°51' E 012°50'0 0.0
2017-Mar-01 10:31N 55°51' E 012°50'0 0.0
2017-Mar-01 09:32N 55°51' E 012°50'0 0.0
2017-Mar-01 08:32N 55°51' E 012°50'0 0.0
2017-Mar-01 07:33N 55°51' E 012°50'0 0.0
2017-Mar-01 06:31N 55°51' E 012°50'0 0.0
2017-Mar-01 05:31N 55°51' E 012°50'0 0.0
2017-Mar-01 04:32N 55°51' E 012°50'0 0.0
2017-Mar-01 03:33N 55°51' E 012°50'0 0.0
2017-Mar-01 02:33N 55°51' E 012°50'0 0.0
2017-Mar-01 01:31N 55°51' E 012°50'0 0.0
2017-Mar-01 00:32N 55°51' E 012°50'0 0.0
2017-Feb-28 23:32N 55°51' E 012°50'0 0.0
2017-Feb-28 22:33N 55°51' E 012°50'0 0.0
2017-Feb-28 21:31N 55°51' E 012°50'0 0.0
2017-Feb-28 20:31N 55°51' E 012°50'0 0.0
2017-Feb-28 19:32N 55°51' E 012°50'0 0.0
2017-Feb-28 18:33N 55°51' E 012°50'0 0.0
2017-Feb-28 17:33N 55°51' E 012°50'0 0.0
2017-Feb-28 16:31N 55°51' E 012°50'0 0.0
2017-Feb-28 15:32N 55°51' E 012°50'0 0.0
2017-Feb-28 14:32N 55°51' E 012°50'0 0.0
2017-Feb-28 13:33N 55°51' E 012°50'0 0.0
2017-Feb-28 12:31N 55°51' E 012°50'0 0.0
2017-Feb-28 11:31N 55°51' E 012°50'0 0.0
2017-Feb-28 10:32N 55°51' E 012°50'0 0.0
2017-Feb-28 09:33N 55°51' E 012°50'0 0.0
2017-Feb-28 08:33N 55°51' E 012°50'0 0.0
2017-Feb-28 07:31N 55°51' E 012°50'0 0.0
2017-Feb-28 06:32N 55°51' E 012°50'0 0.0
2017-Feb-28 05:32N 55°51' E 012°50'0 0.0
2017-Feb-28 04:33N 55°51' E 012°50'0 0.0
2017-Feb-28 03:31N 55°51' E 012°50'0 0.0
2017-Feb-28 02:32N 55°51' E 012°50'0 0.0
2017-Feb-28 01:32N 55°51' E 012°50'0 0.0
2017-Feb-28 00:33N 55°51' E 012°50'0 0.0
2017-Feb-27 23:33N 55°51' E 012°50'0 0.0
2017-Feb-27 22:31N 55°51' E 012°50'0 0.0
2017-Feb-27 21:29N 55°51' E 012°50'0 0.0
2017-Feb-27 20:33N 55°51' E 012°50'0 0.0
2017-Feb-27 19:33N 55°51' E 012°50'0 0.0
2017-Feb-27 18:31N 55°51' E 012°50'0 0.0
2017-Feb-27 17:32N 55°51' E 012°50'0 0.0
2017-Feb-27 16:32N 55°51' E 012°50'0 0.0
2017-Feb-27 15:33N 55°51' E 012°50'0 0.0
2017-Feb-27 14:31N 55°51' E 012°50'0 0.0
2017-Feb-27 13:31N 55°51' E 012°50'0 0.0
2017-Feb-27 12:32N 55°51' E 012°50'0 0.0
2017-Feb-27 11:33N 55°51' E 012°50'0 0.0
2017-Feb-27 10:33N 55°51' E 012°50'0 0.0
2017-Feb-27 09:31N 55°51' E 012°50'0 0.0
2017-Feb-27 08:32N 55°51' E 012°50'0 0.0
2017-Feb-27 07:32N 55°51' E 012°50'0 0.0
2017-Feb-27 06:33N 55°51' E 012°50'0 0.0
2017-Feb-27 05:31N 55°51' E 012°50'0 0.0
2017-Feb-27 04:31N 55°51' E 012°50'0 0.0
2017-Feb-27 03:32N 55°51' E 012°50'0 0.0
2017-Feb-27 02:33N 55°51' E 012°50'0 0.0
2017-Feb-27 01:33N 55°51' E 012°50'0 0.0
2017-Feb-27 00:31N 55°51' E 012°50'0 0.0
2017-Feb-26 23:32N 55°51' E 012°50'0 0.0
2017-Feb-26 22:32N 55°51' E 012°50'0 0.0
2017-Feb-26 21:33N 55°51' E 012°50'0 0.0
2017-Feb-26 20:31N 55°51' E 012°50'0 0.0
2017-Feb-26 19:31N 55°51' E 012°50'0 0.0
2017-Feb-26 18:32N 55°51' E 012°50'0 0.0
2017-Feb-26 17:33N 55°51' E 012°50'0 0.0
2017-Feb-26 16:33N 55°51' E 012°50'0 0.0
2017-Feb-26 15:31N 55°51' E 012°50'0 0.0
2017-Feb-26 14:32N 55°51' E 012°50'0 0.0
2017-Feb-26 13:32N 55°51' E 012°50'0 0.0
2017-Feb-26 12:33N 55°51' E 012°50'0 0.0
2017-Feb-26 11:31N 55°51' E 012°50'0 0.0
2017-Feb-26 10:31N 55°51' E 012°50'0 0.0
2017-Feb-26 09:32N 55°51' E 012°50'0 0.0
2017-Feb-26 08:33N 55°51' E 012°50'0 0.0
2017-Feb-26 07:33N 55°51' E 012°50'0 0.0
2017-Feb-26 06:31N 55°51' E 012°50'0 0.0
2017-Feb-26 05:32N 55°51' E 012°50'0 0.0
2017-Feb-26 04:32N 55°51' E 012°50'0 0.0
2017-Feb-26 03:33N 55°51' E 012°50'0 0.0
2017-Feb-26 02:31N 55°51' E 012°50'0 0.0
2017-Feb-26 01:31N 55°51' E 012°50'0 0.0
2017-Feb-26 00:32N 55°51' E 012°50'0 0.0
2017-Feb-25 23:33N 55°51' E 012°50'0 0.0
2017-Feb-25 22:33N 55°51' E 012°50'0 0.0
2017-Feb-25 21:31N 55°51' E 012°50'0 0.0
2017-Feb-25 20:32N 55°51' E 012°50'0 0.0
2017-Feb-25 19:32N 55°51' E 012°50'0 0.0
2017-Feb-25 18:33N 55°51' E 012°50'0 0.0
2017-Feb-25 17:31N 55°51' E 012°50'0 0.0
2017-Feb-25 16:31N 55°51' E 012°50'0 0.0
2017-Feb-25 15:32N 55°51' E 012°50'0 0.0
2017-Feb-25 14:33N 55°51' E 012°50'0 0.0
2017-Feb-25 13:33N 55°51' E 012°50'0 0.0
2017-Feb-25 12:31N 55°51' E 012°50'0 0.0
2017-Feb-25 11:32N 55°51' E 012°50'0 0.0
2017-Feb-25 10:32N 55°51' E 012°50'0 0.0
2017-Feb-25 09:33N 55°51' E 012°50'0 0.0
2017-Feb-25 08:31N 55°51' E 012°50'0 0.0
2017-Feb-25 07:31N 55°51' E 012°50'0 0.0
2017-Feb-25 06:32N 55°51' E 012°50'0 0.0
2017-Feb-25 05:33N 55°51' E 012°50'0 0.0
2017-Feb-25 04:33N 55°51' E 012°50'0 0.0
2017-Feb-25 03:31N 55°51' E 012°50'0 0.0
2017-Feb-25 02:32N 55°51' E 012°50'0 0.0
2017-Feb-25 01:32N 55°51' E 012°50'0 0.0
2017-Feb-25 00:33N 55°51' E 012°50'0 0.1
2017-Feb-24 23:33N 55°51' E 012°50'3 3.1
2017-Feb-24 22:34N 55°53' E 012°46'5 5.0
2017-Feb-24 21:34N 55°58' E 012°42'1111.0
2017-Feb-24 20:34N 56°07' E 012°31'1111.2
2017-Feb-24 19:34N 56°14' E 012°14'4511.2
2017-Feb-24 15:30N 56°56' E 011°44'1212.0
2017-Feb-24 14:32N 57°07' E 011°38'1212.1
2017-Feb-24 13:33N 57°19' E 011°37'1111.3
2017-Feb-24 12:34N 57°30' E 011°36'6 5.3
2017-Feb-24 11:28N 57°35' E 011°40'0 0.0
2017-Feb-24 10:31N 57°35' E 011°40'0 0.0
2017-Feb-24 09:32N 57°35' E 011°40'0 0.0
2017-Feb-24 08:33N 57°35' E 011°40'0 0.0
2017-Feb-24 07:33N 57°35' E 011°40'2 1.7
2017-Feb-24 06:34N 57°35' E 011°37'4 4.2
2017-Feb-24 05:33N 57°36' E 011°30'6 6.3
2017-Feb-24 04:34N 57°39' E 011°19'7 7.0
2017-Feb-24 03:33N 57°42' E 011°08'7 6.6
2017-Feb-24 02:33N 57°45' E 010°57'7 7.1
2017-Feb-24 01:33N 57°48' E 010°44'8 7.9
2017-Feb-24 00:34N 57°49' E 010°30'9 8.8
2017-Feb-23 23:34N 57°49' E 010°13'57 9.6
2017-Feb-23 17:33N 57°53' E 008°26'9 9.2
2017-Feb-23 16:33N 57°54' E 008°08'9 8.7
2017-Feb-23 15:33N 57°55' E 007°52'9 9.2
2017-Feb-23 14:33N 57°57' E 007°35'10 9.7
2017-Feb-23 13:33N 57°58' E 007°17'1010.1
2017-Feb-23 12:34N 57°58' E 006°58'1010.4
2017-Feb-23 11:33N 58°01' E 006°39'1010.2
2017-Feb-23 10:33N 58°05' E 006°21'10 9.8
2017-Feb-23 09:33N 58°11' E 006°07'1010.2
2017-Feb-23 08:33N 58°18' E 005°53'10 9.7
2017-Feb-23 07:34N 58°25' E 005°39'10 9.9
2017-Feb-23 06:34N 58°33' E 005°31'1010.4
2017-Feb-23 05:34N 58°43' E 005°24'1110.6
2017-Feb-23 04:34N 58°53' E 005°31'1312.6
2017-Feb-23 03:34N 59°06' E 005°31'1111.0
2017-Feb-23 02:34N 59°15' E 005°20'10 9.4
2017-Feb-23 01:33N 59°24' E 005°15'1111.3
2017-Feb-23 00:33N 59°36' E 005°15'1312.4
2017-Feb-22 23:33N 59°45' E 005°31'1212.2
2017-Feb-22 22:34N 59°57' E 005°27'1212.2
2017-Feb-22 21:33N 60°08' E 005°17'1211.6
2017-Feb-22 20:33N 60°19' E 005°12'5 5.3
2017-Feb-22 19:33N 60°23' E 005°19'0 0.0
2017-Feb-22 18:33N 60°23' E 005°19'0 0.0
2017-Feb-22 17:33N 60°23' E 005°19'0 0.0
2017-Feb-22 16:31N 60°23' E 005°19'0 0.0
2017-Feb-22 15:32N 60°23' E 005°19'0 0.0
2017-Feb-22 14:32N 60°23' E 005°19'0 0.0
2017-Feb-22 13:33N 60°23' E 005°19'0 0.0
2017-Feb-22 12:28N 60°23' E 005°19'0 0.0
2017-Feb-22 11:31N 60°23' E 005°19'0 0.0
2017-Feb-22 10:32N 60°23' E 005°19'0 0.0
2017-Feb-22 09:33N 60°23' E 005°19'0 0.0
2017-Feb-22 08:33N 60°23' E 005°19'0 0.0
2017-Feb-22 07:31N 60°23' E 005°19'0 0.0
2017-Feb-22 06:32N 60°23' E 005°19'0 0.0
2017-Feb-22 05:32N 60°23' E 005°19'0 0.0
2017-Feb-22 04:33N 60°23' E 005°19'0 0.0
2017-Feb-22 03:31N 60°23' E 005°19'0 0.0
2017-Feb-22 02:31N 60°23' E 005°19'0 0.0
2017-Feb-22 01:32N 60°23' E 005°19'0 0.0
2017-Feb-22 00:33N 60°23' E 005°19'0 0.0
2017-Feb-21 23:33N 60°23' E 005°19'0 0.0
2017-Feb-21 22:31N 60°23' E 005°19'0 0.0
2017-Feb-21 21:32N 60°23' E 005°19'0 0.0
2017-Feb-21 20:32N 60°23' E 005°19'0 0.0
2017-Feb-21 19:33N 60°23' E 005°19'0 0.0
2017-Feb-21 18:31N 60°23' E 005°19'0 0.0
2017-Feb-21 17:31N 60°23' E 005°19'0 0.0
2017-Feb-21 16:32N 60°23' E 005°19'0 0.0
2017-Feb-21 15:33N 60°23' E 005°19'0 0.0
2017-Feb-21 14:33N 60°23' E 005°19'0 0.0
2017-Feb-21 13:31N 60°23' E 005°19'0 0.0
2017-Feb-21 12:32N 60°23' E 005°19'0 0.0
2017-Feb-21 11:33N 60°23' E 005°19'0 0.0
2017-Feb-21 10:33N 60°23' E 005°19'0 0.0
2017-Feb-21 09:31N 60°23' E 005°19'0 0.0
2017-Feb-21 08:32N 60°23' E 005°19'0 0.0
2017-Feb-21 07:32N 60°23' E 005°19'0 0.0
2017-Feb-21 06:33N 60°23' E 005°19'0 0.0
2017-Feb-21 05:31N 60°23' E 005°19'0 0.0
2017-Feb-21 04:31N 60°23' E 005°19'0 0.0
2017-Feb-21 03:32N 60°23' E 005°19'0 0.0
2017-Feb-21 02:33N 60°23' E 005°19'0 0.0
2017-Feb-21 01:33N 60°23' E 005°19'0 0.0
2017-Feb-21 00:31N 60°23' E 005°19'0 0.0
2017-Feb-20 23:32N 60°23' E 005°19'0 0.0
2017-Feb-20 22:32N 60°23' E 005°19'0 0.0
2017-Feb-20 21:33N 60°23' E 005°19'0 0.0
2017-Feb-20 20:31N 60°23' E 005°19'0 0.0
2017-Feb-20 19:31N 60°23' E 005°19'0 0.0
2017-Feb-20 18:32N 60°23' E 005°19'0 0.0
2017-Feb-20 17:33N 60°23' E 005°19'  
Track history (hours):
 
Tides and Currents Weather Stations Pressure Air Temp Water Temp Dewpoint Dewpoint Depression Visibility Wind Speed Wind Dir Waves Ship Positions

Magne Viking

Last reported at 2017-Mar-02 17:08 UTC. Time now 2017-Mar-24 08:13 UTC.
Position N 56°33' E 017°11'.
Warning: this ship's position is 21 days out of date.

Length 85 m; draft 7.3 m.

Type: Tug. MMSI: 219375000.

Date/timePositionNaut miles runAvg speedWind from/ knotsBaromVisibWave heightAir tempDewpointWater temp
2017-Mar-02 17:08N 56°33' E 017°11'610.0
2017-Mar-02 16:32N 56°28' E 017°07'1010.1
2017-Mar-02 15:33N 56°18' E 017°03'10 9.7
2017-Mar-02 14:34N 56°10' E 016°53'10 9.9
2017-Mar-02 13:34N 56°02' E 016°42'1010.0
2017-Mar-02 12:34N 55°57' E 016°27'1010.0
2017-Mar-02 11:33N 55°52' E 016°11'10 9.9
2017-Mar-02 10:34N 55°47' E 015°56'1010.0
2017-Mar-02 09:34N 55°43' E 015°40'10 9.9
2017-Mar-02 08:34N 55°38' E 015°25'10 9.9
2017-Mar-02 07:33N 55°33' E 015°09'10 9.9
2017-Mar-02 06:34N 55°28' E 014°54'1010.0
2017-Mar-02 05:33N 55°23' E 014°39'1010.4
2017-Mar-02 04:33N 55°15' E 014°27'10 9.8
2017-Mar-02 03:34N 55°10' E 014°13'1110.1
2017-Mar-02 02:31N 55°11' E 013°54'1010.5
2017-Mar-02 01:32N 55°12' E 013°36'1110.7
2017-Mar-02 00:30N 55°13' E 013°17'1010.5
2017-Mar-01 23:33N 55°14' E 012°60'1110.6
2017-Mar-01 22:34N 55°17' E 012°42'10 9.6
2017-Mar-01 21:34N 55°27' E 012°41'9 8.9
2017-Mar-01 20:34N 55°36' E 012°42'10 9.6
2017-Mar-01 19:34N 55°45' E 012°41'8 8.2
2017-Mar-01 18:34N 55°53' E 012°47'2 1.9
2017-Mar-01 17:34N 55°51' E 012°50'0 0.0
2017-Mar-01 16:33N 55°51' E 012°50'0 0.0
2017-Mar-01 15:31N 55°51' E 012°50'0 0.0
2017-Mar-01 14:31N 55°51' E 012°50'0 0.0
2017-Mar-01 13:32N 55°51' E 012°50'0 0.0
2017-Mar-01 12:33N 55°51' E 012°50'0 0.0
2017-Mar-01 11:33N 55°51' E 012°50'0 0.0
2017-Mar-01 10:31N 55°51' E 012°50'0 0.0
2017-Mar-01 09:32N 55°51' E 012°50'0 0.0
2017-Mar-01 08:32N 55°51' E 012°50'0 0.0
2017-Mar-01 07:33N 55°51' E 012°50'0 0.0
2017-Mar-01 06:31N 55°51' E 012°50'0 0.0
2017-Mar-01 05:31N 55°51' E 012°50'0 0.0
2017-Mar-01 04:32N 55°51' E 012°50'0 0.0
2017-Mar-01 03:33N 55°51' E 012°50'0 0.0
2017-Mar-01 02:33N 55°51' E 012°50'0 0.0
2017-Mar-01 01:31N 55°51' E 012°50'0 0.0
2017-Mar-01 00:32N 55°51' E 012°50'0 0.0
2017-Feb-28 23:32N 55°51' E 012°50'0 0.0
2017-Feb-28 22:33N 55°51' E 012°50'0 0.0
2017-Feb-28 21:31N 55°51' E 012°50'0 0.0
2017-Feb-28 20:31N 55°51' E 012°50'0 0.0
2017-Feb-28 19:32N 55°51' E 012°50'0 0.0
2017-Feb-28 18:33N 55°51' E 012°50'0 0.0
2017-Feb-28 17:33N 55°51' E 012°50'0 0.0
2017-Feb-28 16:31N 55°51' E 012°50'0 0.0
2017-Feb-28 15:32N 55°51' E 012°50'0 0.0
2017-Feb-28 14:32N 55°51' E 012°50'0 0.0
2017-Feb-28 13:33N 55°51' E 012°50'0 0.0
2017-Feb-28 12:31N 55°51' E 012°50'0 0.0
2017-Feb-28 11:31N 55°51' E 012°50'0 0.0
2017-Feb-28 10:32N 55°51' E 012°50'0 0.0
2017-Feb-28 09:33N 55°51' E 012°50'0 0.0
2017-Feb-28 08:33N 55°51' E 012°50'0 0.0
2017-Feb-28 07:31N 55°51' E 012°50'0 0.0
2017-Feb-28 06:32N 55°51' E 012°50'0 0.0
2017-Feb-28 05:32N 55°51' E 012°50'0 0.0
2017-Feb-28 04:33N 55°51' E 012°50'0 0.0
2017-Feb-28 03:31N 55°51' E 012°50'0 0.0
2017-Feb-28 02:32N 55°51' E 012°50'0 0.0
2017-Feb-28 01:32N 55°51' E 012°50'0 0.0
2017-Feb-28 00:33N 55°51' E 012°50'0 0.0
2017-Feb-27 23:33N 55°51' E 012°50'0 0.0
2017-Feb-27 22:31N 55°51' E 012°50'0 0.0
2017-Feb-27 21:29N 55°51' E 012°50'0 0.0
2017-Feb-27 20:33N 55°51' E 012°50'0 0.0
2017-Feb-27 19:33N 55°51' E 012°50'0 0.0
2017-Feb-27 18:31N 55°51' E 012°50'0 0.0
2017-Feb-27 17:32N 55°51' E 012°50'0 0.0
2017-Feb-27 16:32N 55°51' E 012°50'0 0.0
2017-Feb-27 15:33N 55°51' E 012°50'0 0.0
2017-Feb-27 14:31N 55°51' E 012°50'0 0.0
2017-Feb-27 13:31N 55°51' E 012°50'0 0.0
2017-Feb-27 12:32N 55°51' E 012°50'0 0.0
2017-Feb-27 11:33N 55°51' E 012°50'0 0.0
2017-Feb-27 10:33N 55°51' E 012°50'0 0.0
2017-Feb-27 09:31N 55°51' E 012°50'0 0.0
2017-Feb-27 08:32N 55°51' E 012°50'0 0.0
2017-Feb-27 07:32N 55°51' E 012°50'0 0.0
2017-Feb-27 06:33N 55°51' E 012°50'0 0.0
2017-Feb-27 05:31N 55°51' E 012°50'0 0.0
2017-Feb-27 04:31N 55°51' E 012°50'0 0.0
2017-Feb-27 03:32N 55°51' E 012°50'0 0.0
2017-Feb-27 02:33N 55°51' E 012°50'0 0.0
2017-Feb-27 01:33N 55°51' E 012°50'0 0.0
2017-Feb-27 00:31N 55°51' E 012°50'0 0.0
2017-Feb-26 23:32N 55°51' E 012°50'0 0.0
2017-Feb-26 22:32N 55°51' E 012°50'0 0.0
2017-Feb-26 21:33N 55°51' E 012°50'0 0.0
2017-Feb-26 20:31N 55°51' E 012°50'0 0.0
2017-Feb-26 19:31N 55°51' E 012°50'0 0.0
2017-Feb-26 18:32N 55°51' E 012°50'0 0.0
2017-Feb-26 17:33N 55°51' E 012°50'0 0.0
2017-Feb-26 16:33N 55°51' E 012°50'0 0.0
2017-Feb-26 15:31N 55°51' E 012°50'0 0.0
2017-Feb-26 14:32N 55°51' E 012°50'0 0.0
2017-Feb-26 13:32N 55°51' E 012°50'0 0.0
2017-Feb-26 12:33N 55°51' E 012°50'0 0.0
2017-Feb-26 11:31N 55°51' E 012°50'0 0.0
2017-Feb-26 10:31N 55°51' E 012°50'0 0.0
2017-Feb-26 09:32N 55°51' E 012°50'0 0.0
2017-Feb-26 08:33N 55°51' E 012°50'0 0.0
2017-Feb-26 07:33N 55°51' E 012°50'0 0.0
2017-Feb-26 06:31N 55°51' E 012°50'0 0.0
2017-Feb-26 05:32N 55°51' E 012°50'0 0.0
2017-Feb-26 04:32N 55°51' E 012°50'0 0.0
2017-Feb-26 03:33N 55°51' E 012°50'0 0.0
2017-Feb-26 02:31N 55°51' E 012°50'0 0.0
2017-Feb-26 01:31N 55°51' E 012°50'0 0.0
2017-Feb-26 00:32N 55°51' E 012°50'0 0.0
2017-Feb-25 23:33N 55°51' E 012°50'0 0.0
2017-Feb-25 22:33N 55°51' E 012°50'0 0.0
2017-Feb-25 21:31N 55°51' E 012°50'0 0.0
2017-Feb-25 20:32N 55°51' E 012°50'0 0.0
2017-Feb-25 19:32N 55°51' E 012°50'0 0.0
2017-Feb-25 18:33N 55°51' E 012°50'0 0.0
2017-Feb-25 17:31N 55°51' E 012°50'0 0.0
2017-Feb-25 16:31N 55°51' E 012°50'0 0.0
2017-Feb-25 15:32N 55°51' E 012°50'0 0.0
2017-Feb-25 14:33N 55°51' E 012°50'0 0.0
2017-Feb-25 13:33N 55°51' E 012°50'0 0.0
2017-Feb-25 12:31N 55°51' E 012°50'0 0.0
2017-Feb-25 11:32N 55°51' E 012°50'0 0.0
2017-Feb-25 10:32N 55°51' E 012°50'0 0.0
2017-Feb-25 09:33N 55°51' E 012°50'0 0.0
2017-Feb-25 08:31N 55°51' E 012°50'0 0.0
2017-Feb-25 07:31N 55°51' E 012°50'0 0.0
2017-Feb-25 06:32N 55°51' E 012°50'0 0.0
2017-Feb-25 05:33N 55°51' E 012°50'0 0.0
2017-Feb-25 04:33N 55°51' E 012°50'0 0.0
2017-Feb-25 03:31N 55°51' E 012°50'0 0.0
2017-Feb-25 02:32N 55°51' E 012°50'0 0.0
2017-Feb-25 01:32N 55°51' E 012°50'0 0.0
2017-Feb-25 00:33N 55°51' E 012°50'0 0.1
2017-Feb-24 23:33N 55°51' E 012°50'3 3.1
2017-Feb-24 22:34N 55°53' E 012°46'5 5.0
2017-Feb-24 21:34N 55°58' E 012°42'1111.0
2017-Feb-24 20:34N 56°07' E 012°31'1111.2
2017-Feb-24 19:34N 56°14' E 012°14'4511.2
2017-Feb-24 15:30N 56°56' E 011°44'1212.0
2017-Feb-24 14:32N 57°07' E 011°38'1212.1
2017-Feb-24 13:33N 57°19' E 011°37'1111.3
2017-Feb-24 12:34N 57°30' E 011°36'6 5.3
2017-Feb-24 11:28N 57°35' E 011°40'0 0.0
2017-Feb-24 10:31N 57°35' E 011°40'0 0.0
2017-Feb-24 09:32N 57°35' E 011°40'0 0.0
2017-Feb-24 08:33N 57°35' E 011°40'0 0.0
2017-Feb-24 07:33N 57°35' E 011°40'2 1.7
2017-Feb-24 06:34N 57°35' E 011°37'4 4.2
2017-Feb-24 05:33N 57°36' E 011°30'6 6.3
2017-Feb-24 04:34N 57°39' E 011°19'7 7.0
2017-Feb-24 03:33N 57°42' E 011°08'7 6.6
2017-Feb-24 02:33N 57°45' E 010°57'7 7.1
2017-Feb-24 01:33N 57°48' E 010°44'8 7.9
2017-Feb-24 00:34N 57°49' E 010°30'9 8.8
2017-Feb-23 23:34N 57°49' E 010°13'57 9.6
2017-Feb-23 17:33N 57°53' E 008°26'9 9.2
2017-Feb-23 16:33N 57°54' E 008°08'9 8.7
2017-Feb-23 15:33N 57°55' E 007°52'9 9.2
2017-Feb-23 14:33N 57°57' E 007°35'10 9.7
2017-Feb-23 13:33N 57°58' E 007°17'1010.1
2017-Feb-23 12:34N 57°58' E 006°58'1010.4
2017-Feb-23 11:33N 58°01' E 006°39'1010.2
2017-Feb-23 10:33N 58°05' E 006°21'10 9.8
2017-Feb-23 09:33N 58°11' E 006°07'1010.2
2017-Feb-23 08:33N 58°18' E 005°53'10 9.7
2017-Feb-23 07:34N 58°25' E 005°39'10 9.9
2017-Feb-23 06:34N 58°33' E 005°31'1010.4
2017-Feb-23 05:34N 58°43' E 005°24'1110.6
2017-Feb-23 04:34N 58°53' E 005°31'1312.6
2017-Feb-23 03:34N 59°06' E 005°31'1111.0
2017-Feb-23 02:34N 59°15' E 005°20'10 9.4
2017-Feb-23 01:33N 59°24' E 005°15'1111.3
2017-Feb-23 00:33N 59°36' E 005°15'1312.4
2017-Feb-22 23:33N 59°45' E 005°31'1212.2
2017-Feb-22 22:34N 59°57' E 005°27'1212.2
2017-Feb-22 21:33N 60°08' E 005°17'1211.6
2017-Feb-22 20:33N 60°19' E 005°12'5 5.3
2017-Feb-22 19:33N 60°23' E 005°19'0 0.0
2017-Feb-22 18:33N 60°23' E 005°19'0 0.0
2017-Feb-22 17:33N 60°23' E 005°19'0 0.0
2017-Feb-22 16:31N 60°23' E 005°19'0 0.0
2017-Feb-22 15:32N 60°23' E 005°19'0 0.0
2017-Feb-22 14:32N 60°23' E 005°19'0 0.0
2017-Feb-22 13:33N 60°23' E 005°19'0 0.0
2017-Feb-22 12:28N 60°23' E 005°19'0 0.0
2017-Feb-22 11:31N 60°23' E 005°19'0 0.0
2017-Feb-22 10:32N 60°23' E 005°19'0 0.0
2017-Feb-22 09:33N 60°23' E 005°19'0 0.0
2017-Feb-22 08:33N 60°23' E 005°19'0 0.0
2017-Feb-22 07:31N 60°23' E 005°19'0 0.0
2017-Feb-22 06:32N 60°23' E 005°19'0 0.0
2017-Feb-22 05:32N 60°23' E 005°19'0 0.0
2017-Feb-22 04:33N 60°23' E 005°19'0 0.0
2017-Feb-22 03:31N 60°23' E 005°19'0 0.0
2017-Feb-22 02:31N 60°23' E 005°19'0 0.0
2017-Feb-22 01:32N 60°23' E 005°19'0 0.0
2017-Feb-22 00:33N 60°23' E 005°19'0 0.0
2017-Feb-21 23:33N 60°23' E 005°19'0 0.0
2017-Feb-21 22:31N 60°23' E 005°19'0 0.0
2017-Feb-21 21:32N 60°23' E 005°19'0 0.0
2017-Feb-21 20:32N 60°23' E 005°19'0 0.0
2017-Feb-21 19:33N 60°23' E 005°19'0 0.0
2017-Feb-21 18:31N 60°23' E 005°19'0 0.0
2017-Feb-21 17:31N 60°23' E 005°19'0 0.0
2017-Feb-21 16:32N 60°23' E 005°19'0 0.0
2017-Feb-21 15:33N 60°23' E 005°19'0 0.0
2017-Feb-21 14:33N 60°23' E 005°19'0 0.0
2017-Feb-21 13:31N 60°23' E 005°19'0 0.0
2017-Feb-21 12:32N 60°23' E 005°19'0 0.0
2017-Feb-21 11:33N 60°23' E 005°19'0 0.0
2017-Feb-21 10:33N 60°23' E 005°19'0 0.0
2017-Feb-21 09:31N 60°23' E 005°19'0 0.0
2017-Feb-21 08:32N 60°23' E 005°19'0 0.0
2017-Feb-21 07:32N 60°23' E 005°19'0 0.0
2017-Feb-21 06:33N 60°23' E 005°19'0 0.0
2017-Feb-21 05:31N 60°23' E 005°19'0 0.0
2017-Feb-21 04:31N 60°23' E 005°19'0 0.0
2017-Feb-21 03:32N 60°23' E 005°19'0 0.0
2017-Feb-21 02:33N 60°23' E 005°19'0 0.0
2017-Feb-21 01:33N 60°23' E 005°19'0 0.0
2017-Feb-21 00:31N 60°23' E 005°19'0 0.0
2017-Feb-20 23:32N 60°23' E 005°19'0 0.0
2017-Feb-20 22:32N 60°23' E 005°19'0 0.0
2017-Feb-20 21:33N 60°23' E 005°19'0 0.0
2017-Feb-20 20:31N 60°23' E 005°19'0 0.0
2017-Feb-20 19:31N 60°23' E 005°19'0 0.0
2017-Feb-20 18:32N 60°23' E 005°19'0 0.0
2017-Feb-20 17:33N 60°23' E 005°19'  

Dump ship's entire track history